Coggon, Iowa
Current Conditions -  °F | °C
As of 7:55 PM on Friday 24 Oct 2014 (Local Time) from KMXO Reporting Station
Overcast Overcast  
Wind Chill: 16°   Ceiling: 3300
Heat Index: 16°   Visibility: 9mi
Dew Point: 15°   Wind: 8mph
Humidity: 94%   Direction: 200°SSW
Pressure: 29.93"   Gusts: NA
Location:  42.28°N, 91.53°W
Report Text: KMXO 250055Z AUTO 20007KT 9SM SCT012 SCT018 OVC033 16/15 A2993 RMK AO2
Loading
Personal Weather Stations






























Interactive Weather Map
Tropical Storm Tracking
New forecast layout! Learn more

10-Day Weather Forecast

Advertisements
Track Severe Weather on mobile